sensor_id;sensor_type;location;lat;lon;timestamp;P1;durP1;ratioP1;P2;durP2;ratioP2
37517;SDS011;23366;52.498;13.446;2023-10-08T00:00:47;4.85;;;1.80;;
37517;SDS011;23366;52.498;13.446;2023-10-08T00:03:18;5.55;;;2.53;;
37517;SDS011;23366;52.498;13.446;2023-10-08T00:05:45;4.05;;;1.25;;
37517;SDS011;23366;52.498;13.446;2023-10-08T00:08:11;11.00;;;2.72;;
37517;SDS011;23366;52.498;13.446;2023-10-08T00:10:40;8.98;;;3.10;;
37517;SDS011;23366;52.498;13.446;2023-10-08T00:13:12;11.05;;;4.65;;
37517;SDS011;23366;52.498;13.446;2023-10-08T00:15:41;4.93;;;2.50;;
37517;SDS011;23366;52.498;13.446;2023-10-08T00:18:15;2.90;;;1.77;;
37517;SDS011;23366;52.498;13.446;2023-10-08T00:20:42;3.53;;;2.15;;
37517;SDS011;23366;52.498;13.446;2023-10-08T00:23:19;3.47;;;2.03;;
37517;SDS011;23366;52.498;13.446;2023-10-08T00:25:50;5.45;;;2.90;;
37517;SDS011;23366;52.498;13.446;2023-10-08T00:28:16;5.35;;;2.13;;
37517;SDS011;23366;52.498;13.446;2023-10-08T00:30:42;4.60;;;2.08;;
37517;SDS011;23366;52.498;13.446;2023-10-08T00:33:08;7.00;;;2.35;;
37517;SDS011;23366;52.498;13.446;2023-10-08T00:35:41;6.95;;;3.08;;
37517;SDS011;23366;52.498;13.446;2023-10-08T00:38:10;5.85;;;1.63;;
37517;SDS011;23366;52.498;13.446;2023-10-08T00:40:45;4.32;;;2.00;;
37517;SDS011;23366;52.498;13.446;2023-10-08T00:43:28;7.05;;;3.05;;
37517;SDS011;23366;52.498;13.446;2023-10-08T00:46:01;10.20;;;3.38;;
37517;SDS011;23366;52.498;13.446;2023-10-08T00:48:42;5.88;;;3.55;;
37517;SDS011;23366;52.498;13.446;2023-10-08T00:51:09;8.85;;;4.30;;
37517;SDS011;23366;52.498;13.446;2023-10-08T00:53:55;12.02;;;4.45;;
37517;SDS011;23366;52.498;13.446;2023-10-08T00:56:30;6.97;;;2.97;;
37517;SDS011;23366;52.498;13.446;2023-10-08T00:59:16;7.80;;;3.33;;
37517;SDS011;23366;52.498;13.446;2023-10-08T01:01:45;10.57;;;4.22;;
37517;SDS011;23366;52.498;13.446;2023-10-08T01:04:19;7.13;;;3.60;;
37517;SDS011;23366;52.498;13.446;2023-10-08T01:06:51;7.88;;;2.55;;
37517;SDS011;23366;52.498;13.446;2023-10-08T01:09:21;5.68;;;2.63;;
37517;SDS011;23366;52.498;13.446;2023-10-08T01:14:57;9.68;;;4.47;;
37517;SDS011;23366;52.498;13.446;2023-10-08T01:17:30;10.40;;;4.32;;
37517;SDS011;23366;52.498;13.446;2023-10-08T01:19:57;8.05;;;2.50;;
37517;SDS011;23366;52.498;13.446;2023-10-08T01:22:45;7.75;;;2.38;;
37517;SDS011;23366;52.498;13.446;2023-10-08T01:25:10;9.27;;;4.25;;
37517;SDS011;23366;52.498;13.446;2023-10-08T01:27:36;7.63;;;3.47;;
37517;SDS011;23366;52.498;13.446;2023-10-08T01:30:02;6.05;;;3.45;;
37517;SDS011;23366;52.498;13.446;2023-10-08T01:32:43;6.38;;;3.30;;
37517;SDS011;23366;52.498;13.446;2023-10-08T01:35:08;6.28;;;2.60;;
37517;SDS011;23366;52.498;13.446;2023-10-08T01:37:47;11.82;;;3.13;;
37517;SDS011;23366;52.498;13.446;2023-10-08T01:40:15;7.05;;;2.60;;
37517;SDS011;23366;52.498;13.446;2023-10-08T01:42:41;5.55;;;2.58;;
37517;SDS011;23366;52.498;13.446;2023-10-08T01:45:07;4.38;;;1.88;;
37517;SDS011;23366;52.498;13.446;2023-10-08T01:47:35;5.43;;;2.13;;
37517;SDS011;23366;52.498;13.446;2023-10-08T01:50:00;5.13;;;1.95;;
37517;SDS011;23366;52.498;13.446;2023-10-08T01:52:30;6.10;;;2.53;;
37517;SDS011;23366;52.498;13.446;2023-10-08T01:54:56;6.18;;;2.30;;
37517;SDS011;23366;52.498;13.446;2023-10-08T01:57:22;7.50;;;2.58;;
37517;SDS011;23366;52.498;13.446;2023-10-08T01:59:48;10.52;;;2.85;;
37517;SDS011;23366;52.498;13.446;2023-10-08T02:02:14;4.60;;;2.10;;
37517;SDS011;23366;52.498;13.446;2023-10-08T02:04:40;6.10;;;2.60;;
37517;SDS011;23366;52.498;13.446;2023-10-08T02:07:06;5.45;;;2.50;;
37517;SDS011;23366;52.498;13.446;2023-10-08T02:09:38;7.50;;;2.20;;
37517;SDS011;23366;52.498;13.446;2023-10-08T02:12:04;4.18;;;2.30;;
37517;SDS011;23366;52.498;13.446;2023-10-08T02:14:30;9.10;;;1.67;;
37517;SDS011;23366;52.498;13.446;2023-10-08T02:16:57;4.60;;;1.60;;
37517;SDS011;23366;52.498;13.446;2023-10-08T02:19:26;10.25;;;3.65;;
37517;SDS011;23366;52.498;13.446;2023-10-08T02:21:52;7.03;;;3.75;;
37517;SDS011;23366;52.498;13.446;2023-10-08T02:24:19;10.27;;;2.95;;
37517;SDS011;23366;52.498;13.446;2023-10-08T02:26:46;6.80;;;2.03;;
37517;SDS011;23366;52.498;13.446;2023-10-08T02:29:12;13.98;;;4.28;;
37517;SDS011;23366;52.498;13.446;2023-10-08T02:31:38;13.77;;;4.78;;
37517;SDS011;23366;52.498;13.446;2023-10-08T02:34:08;11.02;;;3.75;;
37517;SDS011;23366;52.498;13.446;2023-10-08T02:36:37;12.05;;;4.45;;
37517;SDS011;23366;52.498;13.446;2023-10-08T02:39:03;15.00;;;5.70;;
37517;SDS011;23366;52.498;13.446;2023-10-08T02:41:38;9.88;;;4.05;;
37517;SDS011;23366;52.498;13.446;2023-10-08T02:44:06;7.53;;;2.65;;
37517;SDS011;23366;52.498;13.446;2023-10-08T02:46:32;9.50;;;3.95;;
37517;SDS011;23366;52.498;13.446;2023-10-08T02:48:58;12.05;;;5.53;;
37517;SDS011;23366;52.498;13.446;2023-10-08T02:51:23;9.10;;;4.10;;
37517;SDS011;23366;52.498;13.446;2023-10-08T02:53:49;14.07;;;4.82;;
37517;SDS011;23366;52.498;13.446;2023-10-08T02:56:15;13.93;;;4.50;;
37517;SDS011;23366;52.498;13.446;2023-10-08T02:58:40;14.85;;;3.35;;
37517;SDS011;23366;52.498;13.446;2023-10-08T03:01:08;14.45;;;5.70;;
37517;SDS011;23366;52.498;13.446;2023-10-08T03:03:38;9.48;;;4.68;;
37517;SDS011;23366;52.498;13.446;2023-10-08T03:06:07;15.32;;;5.53;;
37517;SDS011;23366;52.498;13.446;2023-10-08T03:08:37;7.50;;;4.13;;
37517;SDS011;23366;52.498;13.446;2023-10-08T03:11:08;16.17;;;5.53;;
37517;SDS011;23366;52.498;13.446;2023-10-08T03:13:45;12.88;;;5.07;;
37517;SDS011;23366;52.498;13.446;2023-10-08T03:16:16;8.05;;;4.35;;
37517;SDS011;23366;52.498;13.446;2023-10-08T03:18:46;8.48;;;4.20;;
37517;SDS011;23366;52.498;13.446;2023-10-08T03:21:15;8.43;;;3.78;;
37517;SDS011;23366;52.498;13.446;2023-10-08T03:24:07;8.15;;;3.88;;
37517;SDS011;23366;52.498;13.446;2023-10-08T03:26:58;7.18;;;3.65;;
37517;SDS011;23366;52.498;13.446;2023-10-08T03:29:45;10.40;;;4.22;;
37517;SDS011;23366;52.498;13.446;2023-10-08T03:32:12;7.05;;;3.55;;
37517;SDS011;23366;52.498;13.446;2023-10-08T03:34:43;10.07;;;3.30;;
37517;SDS011;23366;52.498;13.446;2023-10-08T03:37:13;3.92;;;2.40;;
37517;SDS011;23366;52.498;13.446;2023-10-08T03:39:46;9.02;;;3.05;;
37517;SDS011;23366;52.498;13.446;2023-10-08T03:42:34;3.83;;;1.67;;
37517;SDS011;23366;52.498;13.446;2023-10-08T03:45:05;10.63;;;3.00;;
37517;SDS011;23366;52.498;13.446;2023-10-08T03:47:37;3.85;;;2.58;;
37517;SDS011;23366;52.498;13.446;2023-10-08T03:50:06;9.02;;;2.22;;
37517;SDS011;23366;52.498;13.446;2023-10-08T03:52:35;7.07;;;3.28;;
37517;SDS011;23366;52.498;13.446;2023-10-08T03:55:04;5.93;;;2.65;;
37517;SDS011;23366;52.498;13.446;2023-10-08T03:57:46;6.57;;;2.22;;
37517;SDS011;23366;52.498;13.446;2023-10-08T04:00:21;2.45;;;1.60;;
37517;SDS011;23366;52.498;13.446;2023-10-08T04:02:53;6.47;;;1.83;;
37517;SDS011;23366;52.498;13.446;2023-10-08T04:05:21;7.32;;;2.53;;
37517;SDS011;23366;52.498;13.446;2023-10-08T04:07:52;15.27;;;3.08;;
37517;SDS011;23366;52.498;13.446;2023-10-08T04:10:23;3.45;;;2.50;;
37517;SDS011;23366;52.498;13.446;2023-10-08T04:13:07;5.32;;;2.35;;
37517;SDS011;23366;52.498;13.446;2023-10-08T04:15:37;5.82;;;2.30;;
37517;SDS011;23366;52.498;13.446;2023-10-08T04:18:09;3.95;;;2.08;;
37517;SDS011;23366;52.498;13.446;2023-10-08T04:20:36;4.20;;;1.70;;
37517;SDS011;23366;52.498;13.446;2023-10-08T04:23:05;3.30;;;1.83;;
37517;SDS011;23366;52.498;13.446;2023-10-08T04:25:47;5.05;;;1.98;;
37517;SDS011;23366;52.498;13.446;2023-10-08T04:28:19;5.50;;;1.85;;
37517;SDS011;23366;52.498;13.446;2023-10-08T04:30:46;3.90;;;2.08;;
37517;SDS011;23366;52.498;13.446;2023-10-08T04:33:13;6.85;;;2.35;;
37517;SDS011;23366;52.498;13.446;2023-10-08T04:35:41;9.48;;;2.17;;
37517;SDS011;23366;52.498;13.446;2023-10-08T04:38:16;4.30;;;2.08;;
37517;SDS011;23366;52.498;13.446;2023-10-08T04:40:47;3.55;;;1.90;;
37517;SDS011;23366;52.498;13.446;2023-10-08T04:43:25;10.45;;;2.50;;
37517;SDS011;23366;52.498;13.446;2023-10-08T04:45:50;2.85;;;1.80;;
37517;SDS011;23366;52.498;13.446;2023-10-08T04:48:16;6.65;;;1.73;;
37517;SDS011;23366;52.498;13.446;2023-10-08T04:50:48;3.42;;;1.92;;
37517;SDS011;23366;52.498;13.446;2023-10-08T04:53:23;7.63;;;2.60;;
37517;SDS011;23366;52.498;13.446;2023-10-08T04:56:02;4.45;;;1.80;;
37517;SDS011;23366;52.498;13.446;2023-10-08T04:58:38;5.43;;;1.65;;
37517;SDS011;23366;52.498;13.446;2023-10-08T05:01:10;3.58;;;1.50;;
37517;SDS011;23366;52.498;13.446;2023-10-08T05:04:03;3.83;;;2.10;;
37517;SDS011;23366;52.498;13.446;2023-10-08T05:06:30;2.78;;;1.35;;
37517;SDS011;23366;52.498;13.446;2023-10-08T05:09:11;3.83;;;2.10;;
37517;SDS011;23366;52.498;13.446;2023-10-08T05:11:43;8.60;;;2.42;;
37517;SDS011;23366;52.498;13.446;2023-10-08T05:14:16;6.63;;;2.28;;
37517;SDS011;23366;52.498;13.446;2023-10-08T05:16:54;4.03;;;1.55;;
37517;SDS011;23366;52.498;13.446;2023-10-08T05:19:31;6.43;;;1.90;;
37517;SDS011;23366;52.498;13.446;2023-10-08T05:22:07;5.10;;;2.20;;
37517;SDS011;23366;52.498;13.446;2023-10-08T05:24:52;2.45;;;1.80;;
37517;SDS011;23366;52.498;13.446;2023-10-08T05:27:56;4.10;;;2.50;;
37517;SDS011;23366;52.498;13.446;2023-10-08T05:30:23;5.90;;;1.90;;
37517;SDS011;23366;52.498;13.446;2023-10-08T05:33:04;6.15;;;1.83;;
37517;SDS011;23366;52.498;13.446;2023-10-08T05:35:31;4.47;;;1.88;;
37517;SDS011;23366;52.498;13.446;2023-10-08T05:38:07;5.53;;;1.75;;
37517;SDS011;23366;52.498;13.446;2023-10-08T05:41:03;5.40;;;1.67;;
37517;SDS011;23366;52.498;13.446;2023-10-08T05:43:32;7.10;;;3.05;;
37517;SDS011;23366;52.498;13.446;2023-10-08T05:46:02;5.65;;;1.67;;
37517;SDS011;23366;52.498;13.446;2023-10-08T05:48:48;5.20;;;2.10;;
37517;SDS011;23366;52.498;13.446;2023-10-08T05:51:29;6.93;;;2.70;;
37517;SDS011;23366;52.498;13.446;2023-10-08T05:54:14;3.35;;;1.95;;
37517;SDS011;23366;52.498;13.446;2023-10-08T05:57:07;3.05;;;1.88;;
37517;SDS011;23366;52.498;13.446;2023-10-08T05:59:37;7.63;;;2.83;;
37517;SDS011;23366;52.498;13.446;2023-10-08T06:02:21;2.67;;;1.80;;
37517;SDS011;23366;52.498;13.446;2023-10-08T06:05:09;11.85;;;3.88;;
37517;SDS011;23366;52.498;13.446;2023-10-08T06:07:45;6.00;;;2.33;;
37517;SDS011;23366;52.498;13.446;2023-10-08T06:10:18;5.50;;;2.35;;
37517;SDS011;23366;52.498;13.446;2023-10-08T06:13:06;9.15;;;3.08;;
37517;SDS011;23366;52.498;13.446;2023-10-08T06:15:49;4.20;;;1.98;;
37517;SDS011;23366;52.498;13.446;2023-10-08T06:18:23;4.63;;;2.80;;
37517;SDS011;23366;52.498;13.446;2023-10-08T06:20:52;7.00;;;2.63;;
37517;SDS011;23366;52.498;13.446;2023-10-08T06:23:24;3.72;;;1.98;;
37517;SDS011;23366;52.498;13.446;2023-10-08T06:25:51;3.55;;;1.35;;
37517;SDS011;23366;52.498;13.446;2023-10-08T06:28:37;2.85;;;1.23;;
37517;SDS011;23366;52.498;13.446;2023-10-08T06:31:04;1.63;;;1.25;;
37517;SDS011;23366;52.498;13.446;2023-10-08T06:33:37;1.10;;;1.00;;
37517;SDS011;23366;52.498;13.446;2023-10-08T06:36:04;2.22;;;1.38;;
37517;SDS011;23366;52.498;13.446;2023-10-08T06:38:36;1.70;;;0.95;;
37517;SDS011;23366;52.498;13.446;2023-10-08T06:41:03;3.95;;;1.67;;
37517;SDS011;23366;52.498;13.446;2023-10-08T06:43:39;8.68;;;2.55;;
37517;SDS011;23366;52.498;13.446;2023-10-08T06:46:08;5.68;;;1.95;;
37517;SDS011;23366;52.498;13.446;2023-10-08T06:48:37;2.60;;;1.10;;
37517;SDS011;23366;52.498;13.446;2023-10-08T06:51:07;8.07;;;1.75;;
37517;SDS011;23366;52.498;13.446;2023-10-08T06:53:37;2.08;;;1.30;;
37517;SDS011;23366;52.498;13.446;2023-10-08T06:56:06;3.45;;;0.90;;
37517;SDS011;23366;52.498;13.446;2023-10-08T06:58:34;1.27;;;0.85;;
37517;SDS011;23366;52.498;13.446;2023-10-08T07:01:00;1.23;;;0.82;;
37517;SDS011;23366;52.498;13.446;2023-10-08T07:03:33;2.63;;;1.20;;
37517;SDS011;23366;52.498;13.446;2023-10-08T07:06:00;1.73;;;0.57;;
37517;SDS011;23366;52.498;13.446;2023-10-08T07:08:30;2.20;;;0.68;;
37517;SDS011;23366;52.498;13.446;2023-10-08T07:10:57;2.85;;;0.70;;
37517;SDS011;23366;52.498;13.446;2023-10-08T07:13:25;0.90;;;0.60;;
37517;SDS011;23366;52.498;13.446;2023-10-08T07:15:54;3.75;;;1.58;;
37517;SDS011;23366;52.498;13.446;2023-10-08T07:18:20;2.55;;;0.75;;
37517;SDS011;23366;52.498;13.446;2023-10-08T07:20:52;1.75;;;0.70;;
37517;SDS011;23366;52.498;13.446;2023-10-08T07:23:20;1.55;;;0.43;;
37517;SDS011;23366;52.498;13.446;2023-10-08T07:25:56;2.55;;;1.08;;
37517;SDS011;23366;52.498;13.446;2023-10-08T07:28:35;1.67;;;0.70;;
37517;SDS011;23366;52.498;13.446;2023-10-08T07:31:18;1.80;;;0.73;;
37517;SDS011;23366;52.498;13.446;2023-10-08T07:33:46;1.48;;;0.63;;
37517;SDS011;23366;52.498;13.446;2023-10-08T07:36:12;3.72;;;2.33;;
37517;SDS011;23366;52.498;13.446;2023-10-08T07:38:42;1.25;;;0.52;;
37517;SDS011;23366;52.498;13.446;2023-10-08T07:41:09;2.67;;;0.52;;
37517;SDS011;23366;52.498;13.446;2023-10-08T07:43:37;2.25;;;0.60;;
37517;SDS011;23366;52.498;13.446;2023-10-08T07:46:03;1.33;;;0.75;;
37517;SDS011;23366;52.498;13.446;2023-10-08T07:48:30;1.95;;;0.60;;
37517;SDS011;23366;52.498;13.446;2023-10-08T07:50:56;1.60;;;0.63;;
37517;SDS011;23366;52.498;13.446;2023-10-08T07:53:23;0.70;;;0.40;;
37517;SDS011;23366;52.498;13.446;2023-10-08T07:55:49;1.35;;;0.60;;
37517;SDS011;23366;52.498;13.446;2023-10-08T07:58:16;3.13;;;1.05;;
37517;SDS011;23366;52.498;13.446;2023-10-08T08:00:42;6.05;;;1.70;;
37517;SDS011;23366;52.498;13.446;2023-10-08T08:03:16;3.10;;;0.90;;
37517;SDS011;23366;52.498;13.446;2023-10-08T08:05:46;1.10;;;0.68;;
37517;SDS011;23366;52.498;13.446;2023-10-08T08:08:13;0.40;;;0.30;;
37517;SDS011;23366;52.498;13.446;2023-10-08T08:10:42;1.63;;;0.55;;
37517;SDS011;23366;52.498;13.446;2023-10-08T08:13:09;1.38;;;0.50;;
37517;SDS011;23366;52.498;13.446;2023-10-08T08:15:35;0.60;;;0.50;;
37517;SDS011;23366;52.498;13.446;2023-10-08T08:20:32;2.35;;;0.55;;
37517;SDS011;23366;52.498;13.446;2023-10-08T08:23:08;2.42;;;0.60;;
37517;SDS011;23366;52.498;13.446;2023-10-08T08:25:38;1.90;;;0.50;;
37517;SDS011;23366;52.498;13.446;2023-10-08T08:28:11;1.25;;;0.47;;
37517;SDS011;23366;52.498;13.446;2023-10-08T08:30:45;0.85;;;0.38;;
37517;SDS011;23366;52.498;13.446;2023-10-08T08:33:17;0.68;;;0.40;;
37517;SDS011;23366;52.498;13.446;2023-10-08T08:35:56;0.52;;;0.50;;
37517;SDS011;23366;52.498;13.446;2023-10-08T08:38:23;0.32;;;0.30;;
37517;SDS011;23366;52.498;13.446;2023-10-08T08:40:49;2.10;;;0.52;;
37517;SDS011;23366;52.498;13.446;2023-10-08T08:43:15;9.20;;;1.48;;
37517;SDS011;23366;52.498;13.446;2023-10-08T08:45:41;1.48;;;0.60;;
37517;SDS011;23366;52.498;13.446;2023-10-08T08:48:08;0.25;;;0.25;;
37517;SDS011;23366;52.498;13.446;2023-10-08T08:50:34;0.77;;;0.40;;
37517;SDS011;23366;52.498;13.446;2023-10-08T08:53:02;0.68;;;0.40;;
37517;SDS011;23366;52.498;13.446;2023-10-08T08:55:29;0.65;;;0.30;;
37517;SDS011;23366;52.498;13.446;2023-10-08T08:57:57;0.60;;;0.30;;
37517;SDS011;23366;52.498;13.446;2023-10-08T09:00:24;1.02;;;0.60;;
37517;SDS011;23366;52.498;13.446;2023-10-08T09:02:53;1.08;;;0.45;;
37517;SDS011;23366;52.498;13.446;2023-10-08T09:05:18;1.35;;;1.15;;
37517;SDS011;23366;52.498;13.446;2023-10-08T09:10:23;0.40;;;0.22;;
37517;SDS011;23366;52.498;13.446;2023-10-08T09:12:52;1.90;;;0.55;;
37517;SDS011;23366;52.498;13.446;2023-10-08T09:15:17;0.22;;;0.22;;
37517;SDS011;23366;52.498;13.446;2023-10-08T09:17:44;7.05;;;0.90;;
37517;SDS011;23366;52.498;13.446;2023-10-08T09:20:10;0.98;;;0.77;;
37517;SDS011;23366;52.498;13.446;2023-10-08T09:22:37;1.25;;;0.70;;
37517;SDS011;23366;52.498;13.446;2023-10-08T09:25:02;2.10;;;0.60;;
37517;SDS011;23366;52.498;13.446;2023-10-08T09:27:32;1.17;;;0.52;;
37517;SDS011;23366;52.498;13.446;2023-10-08T09:29:57;1.15;;;0.60;;
37517;SDS011;23366;52.498;13.446;2023-10-08T09:32:24;1.30;;;0.40;;
37517;SDS011;23366;52.498;13.446;2023-10-08T09:34:50;1.00;;;0.30;;
37517;SDS011;23366;52.498;13.446;2023-10-08T09:37:18;0.90;;;0.35;;
37517;SDS011;23366;52.498;13.446;2023-10-08T09:39:47;1.13;;;0.43;;
37517;SDS011;23366;52.498;13.446;2023-10-08T09:42:14;2.25;;;0.82;;
37517;SDS011;23366;52.498;13.446;2023-10-08T09:44:40;1.42;;;0.28;;
37517;SDS011;23366;52.498;13.446;2023-10-08T09:47:08;1.05;;;0.43;;
37517;SDS011;23366;52.498;13.446;2023-10-08T09:49:39;1.13;;;0.40;;
37517;SDS011;23366;52.498;13.446;2023-10-08T09:52:27;4.18;;;0.47;;
37517;SDS011;23366;52.498;13.446;2023-10-08T09:55:02;1.17;;;0.63;;
37517;SDS011;23366;52.498;13.446;2023-10-08T09:57:35;1.73;;;1.20;;
37517;SDS011;23366;52.498;13.446;2023-10-08T10:00:01;1.35;;;0.73;;
37517;SDS011;23366;52.498;13.446;2023-10-08T10:02:30;0.70;;;0.68;;
37517;SDS011;23366;52.498;13.446;2023-10-08T10:04:57;1.33;;;0.50;;
37517;SDS011;23366;52.498;13.446;2023-10-08T10:07:22;1.33;;;0.95;;
37517;SDS011;23366;52.498;13.446;2023-10-08T10:09:50;2.22;;;1.05;;
37517;SDS011;23366;52.498;13.446;2023-10-08T10:12:25;2.50;;;1.00;;
37517;SDS011;23366;52.498;13.446;2023-10-08T10:14:55;2.25;;;1.00;;
37517;SDS011;23366;52.498;13.446;2023-10-08T10:17:22;2.63;;;0.73;;
37517;SDS011;23366;52.498;13.446;2023-10-08T10:19:56;1.52;;;0.90;;
37517;SDS011;23366;52.498;13.446;2023-10-08T10:22:31;1.63;;;1.00;;
37517;SDS011;23366;52.498;13.446;2023-10-08T10:25:00;1.25;;;0.77;;
37517;SDS011;23366;52.498;13.446;2023-10-08T10:27:29;1.55;;;0.60;;
37517;SDS011;23366;52.498;13.446;2023-10-08T10:30:04;1.52;;;0.80;;
37517;SDS011;23366;52.498;13.446;2023-10-08T10:32:33;0.90;;;0.55;;
37517;SDS011;23366;52.498;13.446;2023-10-08T10:34:59;2.42;;;0.85;;
37517;SDS011;23366;52.498;13.446;2023-10-08T10:37:28;2.80;;;0.30;;
37517;SDS011;23366;52.498;13.446;2023-10-08T10:40:05;0.38;;;0.30;;
37517;SDS011;23366;52.498;13.446;2023-10-08T10:45:11;1.65;;;0.45;;
37517;SDS011;23366;52.498;13.446;2023-10-08T10:47:58;1.20;;;0.73;;
37517;SDS011;23366;52.498;13.446;2023-10-08T10:50:35;1.70;;;0.55;;
37517;SDS011;23366;52.498;13.446;2023-10-08T10:53:12;1.08;;;0.47;;
37517;SDS011;23366;52.498;13.446;2023-10-08T10:55:39;1.10;;;0.40;;
37517;SDS011;23366;52.498;13.446;2023-10-08T10:58:12;0.77;;;0.65;;
37517;SDS011;23366;52.498;13.446;2023-10-08T11:00:41;0.95;;;0.45;;
37517;SDS011;23366;52.498;13.446;2023-10-08T11:03:07;1.83;;;0.50;;
37517;SDS011;23366;52.498;13.446;2023-10-08T11:05:43;0.75;;;0.55;;
37517;SDS011;23366;52.498;13.446;2023-10-08T11:08:16;1.30;;;0.55;;
37517;SDS011;23366;52.498;13.446;2023-10-08T11:10:43;2.85;;;0.82;;
37517;SDS011;23366;52.498;13.446;2023-10-08T11:13:24;2.92;;;0.85;;
37517;SDS011;23366;52.498;13.446;2023-10-08T11:15:53;2.83;;;0.82;;
37517;SDS011;23366;52.498;13.446;2023-10-08T11:18:20;3.72;;;1.42;;
37517;SDS011;23366;52.498;13.446;2023-10-08T11:20:48;0.80;;;0.38;;
37517;SDS011;23366;52.498;13.446;2023-10-08T11:23:32;2.08;;;0.95;;
37517;SDS011;23366;52.498;13.446;2023-10-08T11:26:03;0.95;;;0.55;;
37517;SDS011;23366;52.498;13.446;2023-10-08T11:28:31;0.30;;;0.30;;
37517;SDS011;23366;52.498;13.446;2023-10-08T11:31:01;1.05;;;0.65;;
37517;SDS011;23366;52.498;13.446;2023-10-08T11:33:34;1.15;;;0.68;;
37517;SDS011;23366;52.498;13.446;2023-10-08T11:36:01;1.33;;;0.57;;
37517;SDS011;23366;52.498;13.446;2023-10-08T11:38:38;1.45;;;0.73;;
37517;SDS011;23366;52.498;13.446;2023-10-08T11:41:11;0.52;;;0.30;;
37517;SDS011;23366;52.498;13.446;2023-10-08T11:43:45;2.17;;;1.10;;
37517;SDS011;23366;52.498;13.446;2023-10-08T11:46:12;2.63;;;0.75;;
37517;SDS011;23366;52.498;13.446;2023-10-08T11:48:39;0.88;;;0.80;;
37517;SDS011;23366;52.498;13.446;2023-10-08T11:51:08;1.08;;;0.77;;
37517;SDS011;23366;52.498;13.446;2023-10-08T11:53:37;0.95;;;0.50;;
37517;SDS011;23366;52.498;13.446;2023-10-08T11:56:02;0.55;;;0.40;;
37517;SDS011;23366;52.498;13.446;2023-10-08T11:58:34;0.90;;;0.75;;
37517;SDS011;23366;52.498;13.446;2023-10-08T12:01:02;5.25;;;1.08;;
37517;SDS011;23366;52.498;13.446;2023-10-08T12:03:28;2.25;;;0.80;;
37517;SDS011;23366;52.498;13.446;2023-10-08T12:05:54;1.52;;;0.70;;
37517;SDS011;23366;52.498;13.446;2023-10-08T12:08:26;1.95;;;0.98;;
37517;SDS011;23366;52.498;13.446;2023-10-08T12:10:53;2.13;;;1.20;;
37517;SDS011;23366;52.498;13.446;2023-10-08T12:13:19;1.25;;;0.60;;
37517;SDS011;23366;52.498;13.446;2023-10-08T12:15:51;2.70;;;0.75;;
37517;SDS011;23366;52.498;13.446;2023-10-08T12:18:17;1.63;;;0.65;;
37517;SDS011;23366;52.498;13.446;2023-10-08T12:20:52;1.83;;;0.60;;
37517;SDS011;23366;52.498;13.446;2023-10-08T12:23:18;1.23;;;0.55;;
37517;SDS011;23366;52.498;13.446;2023-10-08T12:25:53;2.75;;;0.70;;
37517;SDS011;23366;52.498;13.446;2023-10-08T12:28:25;0.60;;;0.40;;
37517;SDS011;23366;52.498;13.446;2023-10-08T12:30:52;1.45;;;0.60;;
37517;SDS011;23366;52.498;13.446;2023-10-08T12:33:18;0.63;;;0.30;;
37517;SDS011;23366;52.498;13.446;2023-10-08T12:35:44;0.50;;;0.28;;
37517;SDS011;23366;52.498;13.446;2023-10-08T12:38:12;4.07;;;1.10;;
37517;SDS011;23366;52.498;13.446;2023-10-08T12:40:39;1.05;;;0.50;;
37517;SDS011;23366;52.498;13.446;2023-10-08T12:43:12;3.10;;;1.13;;
37517;SDS011;23366;52.498;13.446;2023-10-08T12:45:39;3.97;;;0.88;;
37517;SDS011;23366;52.498;13.446;2023-10-08T12:48:04;2.58;;;1.00;;
37517;SDS011;23366;52.498;13.446;2023-10-08T12:50:30;2.58;;;0.50;;
37517;SDS011;23366;52.498;13.446;2023-10-08T12:53:07;1.42;;;0.70;;
37517;SDS011;23366;52.498;13.446;2023-10-08T12:55:36;1.33;;;0.85;;
37517;SDS011;23366;52.498;13.446;2023-10-08T12:58:05;1.40;;;0.57;;
37517;SDS011;23366;52.498;13.446;2023-10-08T13:00:35;13.43;;;0.80;;
37517;SDS011;23366;52.498;13.446;2023-10-08T13:03:03;2.03;;;0.95;;
37517;SDS011;23366;52.498;13.446;2023-10-08T13:05:30;3.60;;;0.52;;
37517;SDS011;23366;52.498;13.446;2023-10-08T13:07:58;1.83;;;0.70;;
37517;SDS011;23366;52.498;13.446;2023-10-08T13:10:34;0.52;;;0.30;;
37517;SDS011;23366;52.498;13.446;2023-10-08T13:13:03;1.90;;;0.82;;
37517;SDS011;23366;52.498;13.446;2023-10-08T13:15:29;1.10;;;0.52;;
37517;SDS011;23366;52.498;13.446;2023-10-08T13:17:57;3.03;;;0.75;;
37517;SDS011;23366;52.498;13.446;2023-10-08T13:20:23;1.80;;;0.65;;
37517;SDS011;23366;52.498;13.446;2023-10-08T13:22:51;0.90;;;0.60;;
37517;SDS011;23366;52.498;13.446;2023-10-08T13:25:16;6.55;;;2.55;;
37517;SDS011;23366;52.498;13.446;2023-10-08T13:27:42;2.30;;;0.77;;
37517;SDS011;23366;52.498;13.446;2023-10-08T13:30:07;3.80;;;1.00;;
37517;SDS011;23366;52.498;13.446;2023-10-08T13:32:34;0.90;;;0.68;;
37517;SDS011;23366;52.498;13.446;2023-10-08T13:35:01;1.23;;;0.50;;
37517;SDS011;23366;52.498;13.446;2023-10-08T13:37:32;0.65;;;0.32;;
37517;SDS011;23366;52.498;13.446;2023-10-08T13:39:58;0.68;;;0.40;;
37517;SDS011;23366;52.498;13.446;2023-10-08T13:42:24;0.73;;;0.50;;
37517;SDS011;23366;52.498;13.446;2023-10-08T13:44:51;0.50;;;0.28;;
37517;SDS011;23366;52.498;13.446;2023-10-08T13:47:18;1.15;;;0.65;;
37517;SDS011;23366;52.498;13.446;2023-10-08T13:49:47;0.80;;;0.40;;
37517;SDS011;23366;52.498;13.446;2023-10-08T13:52:15;1.98;;;0.30;;
37517;SDS011;23366;52.498;13.446;2023-10-08T13:54:42;1.88;;;0.77;;
37517;SDS011;23366;52.498;13.446;2023-10-08T13:57:12;0.68;;;0.43;;
37517;SDS011;23366;52.498;13.446;2023-10-08T13:59:39;1.63;;;0.80;;
37517;SDS011;23366;52.498;13.446;2023-10-08T14:02:05;1.00;;;0.55;;
37517;SDS011;23366;52.498;13.446;2023-10-08T14:04:39;2.55;;;1.05;;
37517;SDS011;23366;52.498;13.446;2023-10-08T14:07:08;1.08;;;0.70;;
37517;SDS011;23366;52.498;13.446;2023-10-08T14:09:41;2.00;;;0.70;;
37517;SDS011;23366;52.498;13.446;2023-10-08T14:12:10;4.05;;;0.85;;
37517;SDS011;23366;52.498;13.446;2023-10-08T14:14:39;0.47;;;0.28;;
37517;SDS011;23366;52.498;13.446;2023-10-08T14:17:08;1.25;;;0.55;;
37517;SDS011;23366;52.498;13.446;2023-10-08T14:19:39;0.40;;;0.32;;
37517;SDS011;23366;52.498;13.446;2023-10-08T14:22:11;1.33;;;1.23;;
37517;SDS011;23366;52.498;13.446;2023-10-08T14:24:39;1.05;;;0.60;;
37517;SDS011;23366;52.498;13.446;2023-10-08T14:27:04;1.13;;;0.43;;
37517;SDS011;23366;52.498;13.446;2023-10-08T14:29:40;1.40;;;0.40;;
37517;SDS011;23366;52.498;13.446;2023-10-08T14:32:09;0.70;;;0.22;;
37517;SDS011;23366;52.498;13.446;2023-10-08T14:34:35;1.15;;;0.60;;
37517;SDS011;23366;52.498;13.446;2023-10-08T14:37:20;1.25;;;1.15;;
37517;SDS011;23366;52.498;13.446;2023-10-08T14:40:05;0.65;;;0.50;;
37517;SDS011;23366;52.498;13.446;2023-10-08T14:42:49;0.90;;;0.35;;
37517;SDS011;23366;52.498;13.446;2023-10-08T14:45:24;0.73;;;0.60;;
37517;SDS011;23366;52.498;13.446;2023-10-08T14:47:53;1.88;;;0.80;;
37517;SDS011;23366;52.498;13.446;2023-10-08T14:50:19;1.20;;;0.80;;
37517;SDS011;23366;52.498;13.446;2023-10-08T14:52:47;0.95;;;0.65;;
37517;SDS011;23366;52.498;13.446;2023-10-08T14:55:12;1.52;;;0.45;;
37517;SDS011;23366;52.498;13.446;2023-10-08T14:57:38;1.92;;;1.25;;
37517;SDS011;23366;52.498;13.446;2023-10-08T15:00:05;1.85;;;0.60;;
37517;SDS011;23366;52.498;13.446;2023-10-08T15:02:31;3.08;;;0.85;;
37517;SDS011;23366;52.498;13.446;2023-10-08T15:04:58;2.38;;;0.73;;